sensor_id;sensor_type;location;lat;lon;timestamp;pressure;altitude;pressure_sealevel;temperature;humidity
52923;BME280;38796;42.702;23.306;2022-08-19T00:01:02;94992.59;;;21.84;58.25
52923;BME280;38796;42.702;23.306;2022-08-19T00:03:01;94995.75;;;21.68;58.26
52923;BME280;38796;42.702;23.306;2022-08-19T00:05:00;94998.22;;;21.56;59.07
52923;BME280;38796;42.702;23.306;2022-08-19T00:06:59;94981.97;;;21.57;59.26
52923;BME280;38796;42.702;23.306;2022-08-19T00:08:58;94989.38;;;21.49;59.67
52923;BME280;38796;42.702;23.306;2022-08-19T00:10:57;94990.44;;;21.41;60.25
52923;BME280;38796;42.702;23.306;2022-08-19T00:12:57;95003.00;;;21.47;60.22
52923;BME280;38796;42.702;23.306;2022-08-19T00:14:55;95000.94;;;21.49;60.49
52923;BME280;38796;42.702;23.306;2022-08-19T00:16:53;94995.38;;;21.38;60.43
52923;BME280;38796;42.702;23.306;2022-08-19T00:18:52;95000.31;;;21.21;61.04
52923;BME280;38796;42.702;23.306;2022-08-19T00:20:52;95010.41;;;21.19;61.49
52923;BME280;38796;42.702;23.306;2022-08-19T00:22:51;95005.25;;;21.24;61.66
52923;BME280;38796;42.702;23.306;2022-08-19T00:24:49;95005.47;;;21.29;61.38
52923;BME280;38796;42.702;23.306;2022-08-19T00:26:48;95008.31;;;21.27;61.25
52923;BME280;38796;42.702;23.306;2022-08-19T00:28:48;95009.19;;;21.28;61.08
52923;BME280;38796;42.702;23.306;2022-08-19T00:30:47;95013.28;;;21.30;60.32
52923;BME280;38796;42.702;23.306;2022-08-19T00:32:45;95009.19;;;21.28;61.30
52923;BME280;38796;42.702;23.306;2022-08-19T00:34:43;95000.31;;;21.21;61.60
52923;BME280;38796;42.702;23.306;2022-08-19T00:36:43;94997.84;;;21.12;61.59
52923;BME280;38796;42.702;23.306;2022-08-19T00:38:41;94992.88;;;21.09;62.03
52923;BME280;38796;42.702;23.306;2022-08-19T00:40:42;94998.06;;;21.18;61.94
52923;BME280;38796;42.702;23.306;2022-08-19T00:42:40;94993.09;;;21.08;62.33
52923;BME280;38796;42.702;23.306;2022-08-19T00:44:40;94988.78;;;21.14;62.00
52923;BME280;38796;42.702;23.306;2022-08-19T00:46:40;94997.22;;;21.17;61.99
52923;BME280;38796;42.702;23.306;2022-08-19T00:48:39;94990.44;;;21.15;61.77
52923;BME280;38796;42.702;23.306;2022-08-19T00:50:39;94997.63;;;21.07;61.74
52923;BME280;38796;42.702;23.306;2022-08-19T00:52:50;94999.06;;;20.97;61.46
52923;BME280;38796;42.702;23.306;2022-08-19T00:54:50;94984.88;;;20.90;61.85
52923;BME280;38796;42.702;23.306;2022-08-19T00:56:49;94992.50;;;20.99;61.22
52923;BME280;38796;42.702;23.306;2022-08-19T00:58:51;94991.66;;;20.92;61.33
52923;BME280;38796;42.702;23.306;2022-08-19T01:00:50;94986.72;;;20.96;61.28
52923;BME280;38796;42.702;23.306;2022-08-19T01:02:49;94986.94;;;21.01;61.02
52923;BME280;38796;42.702;23.306;2022-08-19T01:04:48;94991.03;;;20.97;61.82
52923;BME280;38796;42.702;23.306;2022-08-19T01:06:46;94996.19;;;21.05;60.81
52923;BME280;38796;42.702;23.306;2022-08-19T01:08:45;94992.28;;;21.01;61.04
52923;BME280;38796;42.702;23.306;2022-08-19T01:10:49;94994.53;;;20.97;61.52
52923;BME280;38796;42.702;23.306;2022-08-19T01:12:49;94992.06;;;20.89;61.51
52923;BME280;38796;42.702;23.306;2022-08-19T01:14:49;95000.09;;;20.89;61.86
52923;BME280;38796;42.702;23.306;2022-08-19T01:16:50;94994.34;;;20.92;61.94
52923;BME280;38796;42.702;23.306;2022-08-19T01:18:51;94997.63;;;20.94;61.67
52923;BME280;38796;42.702;23.306;2022-08-19T01:20:50;94997.03;;;20.92;61.65
52923;BME280;38796;42.702;23.306;2022-08-19T01:22:52;94996.78;;;20.87;61.90
52923;BME280;38796;42.702;23.306;2022-08-19T01:24:51;94990.63;;;20.86;61.98
52923;BME280;38796;42.702;23.306;2022-08-19T01:26:52;94990.84;;;20.85;62.10
52923;BME280;38796;42.702;23.306;2022-08-19T01:28:54;94992.06;;;20.82;61.81
52923;BME280;38796;42.702;23.306;2022-08-19T01:30:56;94989.38;;;20.82;61.37
52923;BME280;38796;42.702;23.306;2022-08-19T01:32:56;94989.59;;;20.81;61.60
52923;BME280;38796;42.702;23.306;2022-08-19T01:34:55;94988.56;;;20.75;61.92
52923;BME280;38796;42.702;23.306;2022-08-19T01:36:53;94990.78;;;20.58;61.88
52923;BME280;38796;42.702;23.306;2022-08-19T01:38:54;94994.28;;;20.52;62.05
52923;BME280;38796;42.702;23.306;2022-08-19T01:40:52;94990.31;;;20.35;62.79
52923;BME280;38796;42.702;23.306;2022-08-19T01:42:50;94997.06;;;20.31;62.58
52923;BME280;38796;42.702;23.306;2022-08-19T01:44:49;94984.28;;;20.13;63.03
52923;BME280;38796;42.702;23.306;2022-08-19T01:46:48;94991.03;;;20.09;63.25
52923;BME280;38796;42.702;23.306;2022-08-19T01:48:46;94993.72;;;20.15;63.51
52923;BME280;38796;42.702;23.306;2022-08-19T01:50:45;94989.84;;;20.25;63.68
52923;BME280;38796;42.702;23.306;2022-08-19T01:52:46;94996.34;;;20.02;64.34
52923;BME280;38796;42.702;23.306;2022-08-19T01:54:59;94999.03;;;20.02;64.48
52923;BME280;38796;42.702;23.306;2022-08-19T01:57:01;94997.88;;;19.83;65.29
52923;BME280;38796;42.702;23.306;2022-08-19T01:59:03;95009.56;;;19.76;65.74
52923;BME280;38796;42.702;23.306;2022-08-19T02:01:04;94999.59;;;19.91;65.48
52923;BME280;38796;42.702;23.306;2022-08-19T02:03:03;95007.63;;;19.91;65.87
52923;BME280;38796;42.702;23.306;2022-08-19T02:05:01;95000.88;;;20.02;65.37
52923;BME280;38796;42.702;23.306;2022-08-19T02:07:00;95008.47;;;19.98;65.99
52923;BME280;38796;42.702;23.306;2022-08-19T02:08:58;95007.84;;;19.96;66.29
52923;BME280;38796;42.702;23.306;2022-08-19T02:10:58;95007.56;;;19.84;67.17
52923;BME280;38796;42.702;23.306;2022-08-19T02:12:56;95000.97;;;19.80;67.53
52923;BME280;38796;42.702;23.306;2022-08-19T02:14:56;95005.94;;;19.90;67.21
52923;BME280;38796;42.702;23.306;2022-08-19T02:16:54;95005.38;;;20.01;66.74
52923;BME280;38796;42.702;23.306;2022-08-19T02:18:52;94990.19;;;20.08;66.39
52923;BME280;38796;42.702;23.306;2022-08-19T02:20:50;94992.72;;;20.16;66.05
52923;BME280;38796;42.702;23.306;2022-08-19T02:22:48;94996.19;;;20.17;65.68
52923;BME280;38796;42.702;23.306;2022-08-19T02:24:46;94994.31;;;20.11;65.66
52923;BME280;38796;42.702;23.306;2022-08-19T02:26:47;94997.78;;;20.05;65.76
52923;BME280;38796;42.702;23.306;2022-08-19T02:28:46;95004.59;;;20.07;65.20
52923;BME280;38796;42.702;23.306;2022-08-19T02:30:46;95001.13;;;20.13;65.21
52923;BME280;38796;42.702;23.306;2022-08-19T02:32:44;94999.28;;;20.14;65.15
52923;BME280;38796;42.702;23.306;2022-08-19T02:34:43;94999.28;;;20.14;65.58
52923;BME280;38796;42.702;23.306;2022-08-19T02:36:41;95005.03;;;20.17;65.40
52923;BME280;38796;42.702;23.306;2022-08-19T02:38:48;94996.97;;;20.04;66.00
52923;BME280;38796;42.702;23.306;2022-08-19T02:40:53;95010.00;;;19.73;67.47
52923;BME280;38796;42.702;23.306;2022-08-19T02:42:52;95000.78;;;19.54;68.12
52923;BME280;38796;42.702;23.306;2022-08-19T02:44:51;95009.72;;;19.39;69.01
52923;BME280;38796;42.702;23.306;2022-08-19T02:46:50;95008.25;;;19.30;69.57
52923;BME280;38796;42.702;23.306;2022-08-19T02:48:49;95010.84;;;19.24;69.49
52923;BME280;38796;42.702;23.306;2022-08-19T02:50:48;95010.97;;;19.37;68.98
52923;BME280;38796;42.702;23.306;2022-08-19T02:52:51;95002.41;;;19.48;68.46
52923;BME280;38796;42.702;23.306;2022-08-19T02:54:50;95011.84;;;19.51;68.47
52923;BME280;38796;42.702;23.306;2022-08-19T02:56:48;95011.06;;;19.57;68.04
52923;BME280;38796;42.702;23.306;2022-08-19T02:58:48;95019.03;;;19.50;68.11
52923;BME280;38796;42.702;23.306;2022-08-19T03:00:51;95010.69;;;19.60;67.56
52923;BME280;38796;42.702;23.306;2022-08-19T03:02:49;95011.72;;;19.59;67.09
52923;BME280;38796;42.702;23.306;2022-08-19T03:04:48;95012.72;;;19.58;67.09
52923;BME280;38796;42.702;23.306;2022-08-19T03:06:47;95012.28;;;19.54;67.27
52923;BME280;38796;42.702;23.306;2022-08-19T03:08:47;95008.34;;;19.50;67.52
52923;BME280;38796;42.702;23.306;2022-08-19T03:10:47;95012.00;;;19.42;67.90
52923;BME280;38796;42.702;23.306;2022-08-19T03:12:45;95010.38;;;19.41;68.08
52923;BME280;38796;42.702;23.306;2022-08-19T03:14:45;95006.00;;;19.34;68.24
52923;BME280;38796;42.702;23.306;2022-08-19T03:16:46;95008.69;;;19.34;68.22
52923;BME280;38796;42.702;23.306;2022-08-19T03:18:45;95011.09;;;19.29;68.55
52923;BME280;38796;42.702;23.306;2022-08-19T03:20:45;95002.69;;;19.32;68.65
52923;BME280;38796;42.702;23.306;2022-08-19T03:22:43;95003.47;;;19.26;68.83
52923;BME280;38796;42.702;23.306;2022-08-19T03:24:42;95012.88;;;19.21;69.16
52923;BME280;38796;42.702;23.306;2022-08-19T03:26:41;95012.13;;;19.28;69.14
52923;BME280;38796;42.702;23.306;2022-08-19T03:28:40;95012.28;;;19.19;69.37
52923;BME280;38796;42.702;23.306;2022-08-19T03:31:07;95007.47;;;19.08;70.08
52923;BME280;38796;42.702;23.306;2022-08-19T03:33:27;95008.91;;;19.11;69.96
52923;BME280;38796;42.702;23.306;2022-08-19T03:35:26;95009.53;;;19.13;70.07
52923;BME280;38796;42.702;23.306;2022-08-19T03:37:24;95015.75;;;19.20;69.79
52923;BME280;38796;42.702;23.306;2022-08-19T03:39:24;95011.19;;;19.14;69.93
52923;BME280;38796;42.702;23.306;2022-08-19T03:41:24;95016.19;;;19.24;69.87
52923;BME280;38796;42.702;23.306;2022-08-19T03:43:41;95021.31;;;19.25;69.42
52923;BME280;38796;42.702;23.306;2022-08-19T03:45:41;95023.81;;;19.27;69.82
52923;BME280;38796;42.702;23.306;2022-08-19T03:47:40;95024.97;;;19.17;70.11
52923;BME280;38796;42.702;23.306;2022-08-19T03:49:39;95031.16;;;18.96;70.71
52923;BME280;38796;42.702;23.306;2022-08-19T03:51:38;95034.91;;;19.02;71.22
52923;BME280;38796;42.702;23.306;2022-08-19T03:53:36;95031.81;;;19.27;70.20
52923;BME280;38796;42.702;23.306;2022-08-19T03:55:39;95040.44;;;19.29;69.73
52923;BME280;38796;42.702;23.306;2022-08-19T03:57:38;95030.09;;;19.40;69.52
52923;BME280;38796;42.702;23.306;2022-08-19T03:59:37;95041.59;;;19.69;68.53
52923;BME280;38796;42.702;23.306;2022-08-19T04:01:35;95037.16;;;19.83;67.97
52923;BME280;38796;42.702;23.306;2022-08-19T04:03:35;95042.03;;;19.73;68.33
52923;BME280;38796;42.702;23.306;2022-08-19T04:05:34;95040.13;;;20.01;67.53
52923;BME280;38796;42.702;23.306;2022-08-19T04:07:32;95045.16;;;20.24;66.79
52923;BME280;38796;42.702;23.306;2022-08-19T04:09:33;95044.22;;;20.45;66.05
52923;BME280;38796;42.702;23.306;2022-08-19T04:11:35;95041.03;;;20.83;65.13
52923;BME280;38796;42.702;23.306;2022-08-19T04:13:40;95044.53;;;20.83;64.77
52923;BME280;38796;42.702;23.306;2022-08-19T04:15:40;95043.75;;;21.16;63.64
52923;BME280;38796;42.702;23.306;2022-08-19T04:17:38;95041.72;;;21.45;62.78
52923;BME280;38796;42.702;23.306;2022-08-19T04:19:38;95041.13;;;21.36;63.02
52923;BME280;38796;42.702;23.306;2022-08-19T04:21:37;95049.53;;;21.59;63.17
52923;BME280;38796;42.702;23.306;2022-08-19T04:23:35;95051.63;;;21.44;63.09
52923;BME280;38796;42.702;23.306;2022-08-19T04:25:42;95055.88;;;21.98;60.54
52923;BME280;38796;42.702;23.306;2022-08-19T04:27:41;95060.19;;;22.19;59.57
52923;BME280;38796;42.702;23.306;2022-08-19T04:29:43;95051.72;;;22.61;58.59
52923;BME280;38796;42.702;23.306;2022-08-19T04:31:42;95055.41;;;22.73;58.05
52923;BME280;38796;42.702;23.306;2022-08-19T04:33:41;95054.59;;;23.04;57.26
52923;BME280;38796;42.702;23.306;2022-08-19T04:35:44;95054.31;;;23.44;56.13
52923;BME280;38796;42.702;23.306;2022-08-19T04:37:43;95053.78;;;23.85;54.78
52923;BME280;38796;42.702;23.306;2022-08-19T04:39:41;95043.78;;;24.29;53.36
52923;BME280;38796;42.702;23.306;2022-08-19T04:41:58;95041.72;;;24.80;51.65
52923;BME280;38796;42.702;23.306;2022-08-19T04:44:14;95048.06;;;24.85;51.60
52923;BME280;38796;42.702;23.306;2022-08-19T04:46:14;95048.94;;;24.67;52.25
52923;BME280;38796;42.702;23.306;2022-08-19T04:48:34;95044.50;;;25.03;51.37
52923;BME280;38796;42.702;23.306;2022-08-19T04:50:46;95046.28;;;25.51;49.85
52923;BME280;38796;42.702;23.306;2022-08-19T04:52:45;95050.66;;;25.87;49.37
52923;BME280;38796;42.702;23.306;2022-08-19T04:54:43;95056.84;;;25.64;49.62
52923;BME280;38796;42.702;23.306;2022-08-19T04:56:43;95053.00;;;25.96;48.62
52923;BME280;38796;42.702;23.306;2022-08-19T04:58:43;95049.13;;;25.80;48.68
52923;BME280;38796;42.702;23.306;2022-08-19T05:00:42;95058.38;;;25.96;48.60
52923;BME280;38796;42.702;23.306;2022-08-19T05:02:40;95052.81;;;25.44;49.58
52923;BME280;38796;42.702;23.306;2022-08-19T05:04:38;95052.16;;;26.07;48.17
52923;BME280;38796;42.702;23.306;2022-08-19T05:06:39;95062.47;;;26.10;48.48
52923;BME280;38796;42.702;23.306;2022-08-19T05:08:39;95060.59;;;26.22;47.74
52923;BME280;38796;42.702;23.306;2022-08-19T05:10:39;95055.31;;;26.51;47.15
52923;BME280;38796;42.702;23.306;2022-08-19T05:12:38;95056.25;;;26.21;47.60
52923;BME280;38796;42.702;23.306;2022-08-19T05:14:36;95063.78;;;25.96;48.13
52923;BME280;38796;42.702;23.306;2022-08-19T05:16:35;95060.50;;;25.82;48.61
52923;BME280;38796;42.702;23.306;2022-08-19T05:18:34;95059.53;;;25.76;48.51
52923;BME280;38796;42.702;23.306;2022-08-19T05:20:49;95067.94;;;25.45;49.80
52923;BME280;38796;42.702;23.306;2022-08-19T05:23:06;95065.38;;;25.08;50.71
52923;BME280;38796;42.702;23.306;2022-08-19T05:25:19;95062.41;;;24.98;51.10
52923;BME280;38796;42.702;23.306;2022-08-19T05:27:38;95064.03;;;24.99;51.36
52923;BME280;38796;42.702;23.306;2022-08-19T05:29:50;95070.47;;;24.98;51.07
52923;BME280;38796;42.702;23.306;2022-08-19T05:31:49;95065.44;;;25.01;51.14
52923;BME280;38796;42.702;23.306;2022-08-19T05:33:48;95065.38;;;25.08;51.28
52923;BME280;38796;42.702;23.306;2022-08-19T05:35:47;95063.44;;;25.15;50.89
52923;BME280;38796;42.702;23.306;2022-08-19T05:37:46;95057.59;;;25.30;50.17
52923;BME280;38796;42.702;23.306;2022-08-19T05:39:52;95061.31;;;25.17;50.85
52923;BME280;38796;42.702;23.306;2022-08-19T05:41:53;95059.38;;;25.06;51.55
52923;BME280;38796;42.702;23.306;2022-08-19T05:43:53;95062.81;;;24.83;51.84
52923;BME280;38796;42.702;23.306;2022-08-19T05:45:52;95069.69;;;24.79;52.04
52923;BME280;38796;42.702;23.306;2022-08-19T05:47:51;95060.38;;;25.11;51.26
52923;BME280;38796;42.702;23.306;2022-08-19T05:49:49;95054.75;;;25.13;51.42
52923;BME280;38796;42.702;23.306;2022-08-19T05:51:48;95063.81;;;25.30;50.92
52923;BME280;38796;42.702;23.306;2022-08-19T05:53:47;95061.16;;;25.54;50.11
52923;BME280;38796;42.702;23.306;2022-08-19T05:55:46;95050.84;;;25.74;49.51
52923;BME280;38796;42.702;23.306;2022-08-19T05:57:45;95057.41;;;25.78;49.20
52923;BME280;38796;42.702;23.306;2022-08-19T05:59:43;95056.03;;;25.76;49.42
52923;BME280;38796;42.702;23.306;2022-08-19T06:01:44;95065.50;;;25.78;48.57
52923;BME280;38796;42.702;23.306;2022-08-19T06:03:44;95057.34;;;25.31;49.90
52923;BME280;38796;42.702;23.306;2022-08-19T06:05:44;95066.75;;;25.40;50.06
52923;BME280;38796;42.702;23.306;2022-08-19T06:07:47;95066.66;;;25.71;48.70
52923;BME280;38796;42.702;23.306;2022-08-19T06:09:46;95069.47;;;25.64;49.02
52923;BME280;38796;42.702;23.306;2022-08-19T06:11:59;95067.84;;;25.63;48.70
52923;BME280;38796;42.702;23.306;2022-08-19T06:14:02;95066.91;;;25.57;49.66
52923;BME280;38796;42.702;23.306;2022-08-19T06:16:01;95060.22;;;26.42;47.52
52923;BME280;38796;42.702;23.306;2022-08-19T06:17:59;95065.94;;;26.46;47.02
52923;BME280;38796;42.702;23.306;2022-08-19T06:19:58;95064.56;;;26.55;47.00
52923;BME280;38796;42.702;23.306;2022-08-19T06:21:57;95066.19;;;26.44;46.27
52923;BME280;38796;42.702;23.306;2022-08-19T06:23:58;95070.00;;;26.72;46.88
52923;BME280;38796;42.702;23.306;2022-08-19T06:25:57;95066.66;;;27.22;45.11
52923;BME280;38796;42.702;23.306;2022-08-19T06:27:57;95068.19;;;27.63;44.21
52923;BME280;38796;42.702;23.306;2022-08-19T06:30:11;95061.97;;;27.96;43.12
52923;BME280;38796;42.702;23.306;2022-08-19T06:32:10;95063.28;;;27.94;43.12
52923;BME280;38796;42.702;23.306;2022-08-19T06:34:09;95063.34;;;27.31;44.26
52923;BME280;38796;42.702;23.306;2022-08-19T06:36:16;95064.69;;;27.17;44.10
52923;BME280;38796;42.702;23.306;2022-08-19T06:38:17;95068.91;;;26.32;45.46
52923;BME280;38796;42.702;23.306;2022-08-19T06:40:20;95063.28;;;25.75;47.83
52923;BME280;38796;42.702;23.306;2022-08-19T06:42:19;95076.09;;;25.80;47.96
52923;BME280;38796;42.702;23.306;2022-08-19T06:44:23;95066.72;;;26.06;47.04
52923;BME280;38796;42.702;23.306;2022-08-19T06:46:22;95071.88;;;25.84;47.51
52923;BME280;38796;42.702;23.306;2022-08-19T06:48:20;95067.47;;;26.65;45.81
52923;BME280;38796;42.702;23.306;2022-08-19T06:50:22;95061.41;;;27.15;45.01
52923;BME280;38796;42.702;23.306;2022-08-19T06:52:21;95061.63;;;27.42;44.24
52923;BME280;38796;42.702;23.306;2022-08-19T06:54:21;95065.22;;;27.65;43.39
52923;BME280;38796;42.702;23.306;2022-08-19T06:56:28;95063.88;;;27.96;42.80
52923;BME280;38796;42.702;23.306;2022-08-19T06:58:31;95056.28;;;27.30;43.66
52923;BME280;38796;42.702;23.306;2022-08-19T07:00:31;95062.91;;;27.40;43.87
52923;BME280;38796;42.702;23.306;2022-08-19T07:02:29;95068.38;;;28.29;42.23
52923;BME280;38796;42.702;23.306;2022-08-19T07:04:30;95061.94;;;29.18;40.54
52923;BME280;38796;42.702;23.306;2022-08-19T07:06:29;95071.22;;;29.54;39.16
52923;BME280;38796;42.702;23.306;2022-08-19T07:08:40;95063.00;;;29.49;39.60
52923;BME280;38796;42.702;23.306;2022-08-19T07:10:43;95072.47;;;28.92;40.40
52923;BME280;38796;42.702;23.306;2022-08-19T07:12:42;95059.09;;;28.86;41.18
52923;BME280;38796;42.702;23.306;2022-08-19T07:14:41;95064.44;;;28.81;41.43
52923;BME280;38796;42.702;23.306;2022-08-19T07:16:41;95068.19;;;28.74;41.75
52923;BME280;38796;42.702;23.306;2022-08-19T07:18:39;95065.41;;;28.69;41.58
52923;BME280;38796;42.702;23.306;2022-08-19T07:20:42;95071.69;;;28.97;41.44
52923;BME280;38796;42.702;23.306;2022-08-19T07:22:41;95066.78;;;29.16;40.25
52923;BME280;38796;42.702;23.306;2022-08-19T07:24:39;95064.97;;;28.78;41.59
52923;BME280;38796;42.702;23.306;2022-08-19T07:26:47;95070.91;;;28.36;43.15
52923;BME280;38796;42.702;23.306;2022-08-19T07:28:48;95068.38;;;28.46;42.70
52923;BME280;38796;42.702;23.306;2022-08-19T07:30:48;95073.91;;;27.50;44.32
52923;BME280;38796;42.702;23.306;2022-08-19T07:32:49;95080.25;;;27.89;43.79
52923;BME280;38796;42.702;23.306;2022-08-19T07:34:49;95067.16;;;28.20;43.56
52923;BME280;38796;42.702;23.306;2022-08-19T07:36:47;95058.69;;;28.33;42.46
52923;BME280;38796;42.702;23.306;2022-08-19T07:38:48;95062.88;;;28.41;42.74
52923;BME280;38796;42.702;23.306;2022-08-19T07:40:46;95057.44;;;28.85;42.20
52923;BME280;38796;42.702;23.306;2022-08-19T07:42:45;95055.63;;;29.72;40.18
52923;BME280;38796;42.702;23.306;2022-08-19T07:44:43;95055.25;;;29.58;40.72
52923;BME280;38796;42.702;23.306;2022-08-19T07:46:49;95057.75;;;30.02;39.36
52923;BME280;38796;42.702;23.306;2022-08-19T07:48:51;95060.38;;;30.24;38.64
52923;BME280;38796;42.702;23.306;2022-08-19T07:50:49;95065.22;;;30.69;38.57
52923;BME280;38796;42.702;23.306;2022-08-19T07:52:48;95056.78;;;31.59;36.30
52923;BME280;38796;42.702;23.306;2022-08-19T07:54:47;95056.22;;;32.13;34.72
52923;BME280;38796;42.702;23.306;2022-08-19T07:56:46;95062.22;;;31.49;35.98
52923;BME280;38796;42.702;23.306;2022-08-19T07:58:50;95058.69;;;31.38;36.14
52923;BME280;38796;42.702;23.306;2022-08-19T08:00:50;95060.16;;;30.93;36.33
52923;BME280;38796;42.702;23.306;2022-08-19T08:02:48;95055.69;;;31.34;35.65
52923;BME280;38796;42.702;23.306;2022-08-19T08:04:48;95054.53;;;31.20;35.86
52923;BME280;38796;42.702;23.306;2022-08-19T08:07:05;95059.06;;;30.89;37.24
52923;BME280;38796;42.702;23.306;2022-08-19T08:09:29;95058.69;;;29.80;39.40
52923;BME280;38796;42.702;23.306;2022-08-19T08:11:34;95058.75;;;30.28;37.67
52923;BME280;38796;42.702;23.306;2022-08-19T08:13:39;95063.16;;;30.34;38.17
52923;BME280;38796;42.702;23.306;2022-08-19T08:15:38;95051.28;;;30.50;38.42
52923;BME280;38796;42.702;23.306;2022-08-19T08:17:39;95056.25;;;31.42;36.89
52923;BME280;38796;42.702;23.306;2022-08-19T08:19:49;95043.44;;;31.47;35.91
52923;BME280;38796;42.702;23.306;2022-08-19T08:21:48;95035.53;;;31.76;35.59
52923;BME280;38796;42.702;23.306;2022-08-19T08:23:46;95033.69;;;31.92;34.70
52923;BME280;38796;42.702;23.306;2022-08-19T08:25:44;95041.72;;;32.38;34.37
52923;BME280;38796;42.702;23.306;2022-08-19T08:27:45;95030.75;;;32.64;33.33
52923;BME280;38796;42.702;23.306;2022-08-19T08:29:49;95037.13;;;32.34;33.54
52923;BME280;38796;42.702;23.306;2022-08-19T08:31:48;95036.31;;;32.33;33.74
52923;BME280;38796;42.702;23.306;2022-08-19T08:33:55;95038.75;;;32.45;33.04
52923;BME280;38796;42.702;23.306;2022-08-19T08:35:55;95034.72;;;32.12;33.85
52923;BME280;38796;42.702;23.306;2022-08-19T08:37:54;95031.38;;;33.10;32.20
52923;BME280;38796;42.702;23.306;2022-08-19T08:39:53;95039.09;;;33.82;31.02
52923;BME280;38796;42.702;23.306;2022-08-19T08:41:56;95020.97;;;33.22;31.00
52923;BME280;38796;42.702;23.306;2022-08-19T08:44:05;95026.00;;;33.44;31.23
52923;BME280;38796;42.702;23.306;2022-08-19T08:46:15;95029.50;;;33.55;30.75
52923;BME280;38796;42.702;23.306;2022-08-19T08:48:36;95028.47;;;34.38;29.94
52923;BME280;38796;42.702;23.306;2022-08-19T08:50:41;95027.19;;;35.22;28.63
52923;BME280;38796;42.702;23.306;2022-08-19T08:52:46;95021.47;;;36.54;26.60
52923;BME280;38796;42.702;23.306;2022-08-19T08:54:47;95020.13;;;37.43;25.97
52923;BME280;38796;42.702;23.306;2022-08-19T08:56:53;95016.47;;;38.86;23.90
52923;BME280;38796;42.702;23.306;2022-08-19T08:58:57;95014.91;;;38.62;23.31
52923;BME280;38796;42.702;23.306;2022-08-19T09:00:56;95011.16;;;38.58;24.45
52923;BME280;38796;42.702;23.306;2022-08-19T09:02:56;95010.22;;;40.16;22.80
52923;BME280;38796;42.702;23.306;2022-08-19T09:04:56;95000.66;;;40.90;21.26
52923;BME280;38796;42.702;23.306;2022-08-19T09:07:09;95003.34;;;41.07;21.88
52923;BME280;38796;42.702;23.306;2022-08-19T09:09:34;94997.94;;;40.81;21.52
52923;BME280;38796;42.702;23.306;2022-08-19T09:11:47;94999.53;;;41.41;20.69
52923;BME280;38796;42.702;23.306;2022-08-19T09:13:56;94999.56;;;40.82;21.02
52923;BME280;38796;42.702;23.306;2022-08-19T09:16:02;95002.41;;;40.09;21.88
52923;BME280;38796;42.702;23.306;2022-08-19T09:18:02;95000.34;;;39.45;23.06
52923;BME280;38796;42.702;23.306;2022-08-19T09:20:08;94990.56;;;40.26;21.24
52923;BME280;38796;42.702;23.306;2022-08-19T09:22:12;94997.63;;;41.33;20.65
52923;BME280;38796;42.702;23.306;2022-08-19T09:24:21;94986.44;;;42.38;19.05
52923;BME280;38796;42.702;23.306;2022-08-19T09:26:28;94990.63;;;41.77;19.80
52923;BME280;38796;42.702;23.306;2022-08-19T09:28:48;94988.38;;;42.37;19.56
52923;BME280;38796;42.702;23.306;2022-08-19T09:30:47;94978.28;;;42.41;19.63
52923;BME280;38796;42.702;23.306;2022-08-19T09:32:49;94980.13;;;42.50;19.19
52923;BME280;38796;42.702;23.306;2022-08-19T09:34:49;94978.19;;;42.75;18.30
52923;BME280;38796;42.702;23.306;2022-08-19T09:36:52;94979.88;;;41.76;18.58
52923;BME280;38796;42.702;23.306;2022-08-19T09:38:51;94973.97;;;41.02;19.69
52923;BME280;38796;42.702;23.306;2022-08-19T09:40:51;94975.41;;;42.87;16.91
52923;BME280;38796;42.702;23.306;2022-08-19T09:42:51;94975.03;;;43.25;16.60
52923;BME280;38796;42.702;23.306;2022-08-19T09:44:49;94968.81;;;42.55;17.04
52923;BME280;38796;42.702;23.306;2022-08-19T09:46:48;94977.59;;;42.69;16.75
52923;BME280;38796;42.702;23.306;2022-08-19T09:48:48;94979.66;;;40.68;17.88
52923;BME280;38796;42.702;23.306;2022-08-19T09:50:48;94981.44;;;39.35;19.61
52923;BME280;38796;42.702;23.306;2022-08-19T09:52:48;94973.28;;;39.56;20.02
52923;BME280;38796;42.702;23.306;2022-08-19T09:54:53;94971.88;;;40.70;19.05
52923;BME280;38796;42.702;23.306;2022-08-19T09:56:51;94968.59;;;41.27;17.68
52923;BME280;38796;42.702;23.306;2022-08-19T09:58:51;94960.09;;;41.32;17.14
52923;BME280;38796;42.702;23.306;2022-08-19T10:00:50;94961.44;;;42.34;16.27
52923;BME280;38796;42.702;23.306;2022-08-19T10:02:48;94958.94;;;42.08;16.58
52923;BME280;38796;42.702;23.306;2022-08-19T10:04:49;94951.97;;;41.90;17.55
52923;BME280;38796;42.702;23.306;2022-08-19T10:07:04;94953.22;;;42.26;17.06
52923;BME280;38796;42.702;23.306;2022-08-19T10:09:03;94957.25;;;43.02;16.57
52923;BME280;38796;42.702;23.306;2022-08-19T10:11:05;94949.78;;;43.14;16.30
52923;BME280;38796;42.702;23.306;2022-08-19T10:13:27;94947.81;;;42.90;17.07
52923;BME280;38796;42.702;23.306;2022-08-19T10:15:27;94943.50;;;43.30;16.68
52923;BME280;38796;42.702;23.306;2022-08-19T10:17:41;94943.31;;;42.37;16.82
52923;BME280;38796;42.702;23.306;2022-08-19T10:19:50;94946.84;;;43.35;16.39
52923;BME280;38796;42.702;23.306;2022-08-19T10:21:52;94943.88;;;42.30;17.59
52923;BME280;38796;42.702;23.306;2022-08-19T10:23:57;94941.13;;;42.42;16.92
52923;BME280;38796;42.702;23.306;2022-08-19T10:26:06;94939.38;;;40.96;18.57
52923;BME280;38796;42.702;23.306;2022-08-19T10:28:07;94932.75;;;41.39;17.95
52923;BME280;38796;42.702;23.306;2022-08-19T10:30:09;94930.81;;;42.06;17.74
52923;BME280;38796;42.702;23.306;2022-08-19T10:32:10;94928.38;;;41.59;18.61
52923;BME280;38796;42.702;23.306;2022-08-19T10:34:10;94929.88;;;41.69;18.00
52923;BME280;38796;42.702;23.306;2022-08-19T10:36:25;94921.31;;;41.49;18.34